Terminal Aerodrome Forecast
Issued by NWS Grand Forks, ND

Home | Current Version | Previous Version | Graphics & Text | Print | Product List | Glossary On
Versions: 1 2 3 4 5 6 7 8 9 10 11 12 13 14 15 16 17 18 19 20 21 22 23 24 25 26 27
000
FTUS43 KFGF 252339
TAFFAR
TAF
KFAR 252339Z 2600/2624 15010KT P6SM SCT015
     FM260300 15007KT P6SM SCT035
     FM260600 15005KT P6SM BKN019
     FM261000 VRB03KT P6SM OVC010
     FM261700 VRB03KT P6SM BKN040=

USA.gov is the U.S. government's official web portal to all federal, state and local government web resources and services.